createdAt,value
2023-03-13T00:01:19.126Z,24.98
2023-03-13T00:03:46.553Z,28.73
2023-03-13T00:06:14.403Z,26.83
2023-03-13T00:08:41.875Z,28.40
2023-03-13T00:11:11.692Z,41.05
2023-03-13T00:13:39.076Z,52.55
2023-03-13T00:16:13.341Z,51.30
2023-03-13T00:18:49.529Z,30.63
2023-03-13T00:21:18.320Z,37.60
2023-03-13T00:23:46.427Z,51.83
2023-03-13T00:26:18.788Z,40.55
2023-03-13T00:28:46.344Z,37.15
2023-03-13T00:31:25.016Z,38.42
2023-03-13T00:33:57.448Z,37.15
2023-03-13T00:36:30.916Z,35.55
2023-03-13T00:38:58.733Z,39.33
2023-03-13T00:41:29.543Z,42.17
2023-03-13T00:43:57.378Z,74.90
2023-03-13T00:46:28.451Z,47.90
2023-03-13T00:48:56.152Z,45.75
2023-03-13T00:51:26.668Z,40.97
2023-03-13T00:53:54.925Z,41.20
2023-03-13T00:56:22.116Z,46.35
2023-03-13T00:58:50.490Z,40.20
2023-03-13T01:01:34.445Z,30.65
2023-03-13T01:04:09.093Z,29.27
2023-03-13T01:06:40.453Z,27.35
2023-03-13T01:09:08.436Z,27.50
2023-03-13T01:11:38.382Z,23.40
2023-03-13T01:14:15.998Z,23.45
2023-03-13T01:16:43.420Z,23.70
2023-03-13T01:19:15.202Z,24.73
2023-03-13T01:21:44.700Z,24.08
2023-03-13T01:24:12.450Z,27.30
2023-03-13T01:26:39.684Z,40.92
2023-03-13T01:29:06.568Z,30.95
2023-03-13T01:31:35.819Z,30.55
2023-03-13T01:34:05.835Z,28.95
2023-03-13T01:36:35.648Z,29.80
2023-03-13T01:39:02.666Z,30.15
2023-03-13T01:41:30.961Z,29.35
2023-03-13T01:43:58.511Z,27.25
2023-03-13T01:46:30.372Z,33.35
2023-03-13T01:49:02.955Z,25.50
2023-03-13T01:51:34.922Z,25.13
2023-03-13T01:54:11.754Z,19.45
2023-03-13T01:57:04.459Z,22.05
2023-03-13T01:59:48.684Z,22.88
2023-03-13T02:02:16.777Z,21.20
2023-03-13T02:04:50.458Z,19.85
2023-03-13T02:08:01.808Z,19.00
2023-03-13T02:10:31.714Z,18.55
2023-03-13T02:13:02.556Z,18.92
2023-03-13T02:15:31.476Z,19.02
2023-03-13T02:17:58.586Z,17.85
2023-03-13T02:20:25.468Z,20.52
2023-03-13T02:23:13.523Z,19.77
2023-03-13T02:25:48.624Z,16.17
2023-03-13T02:28:28.003Z,15.25
2023-03-13T02:30:58.542Z,19.92
2023-03-13T02:33:32.469Z,15.65
2023-03-13T02:36:03.172Z,14.45
2023-03-13T02:38:34.960Z,17.27
2023-03-13T02:41:04.852Z,17.88
2023-03-13T02:43:38.343Z,17.15
2023-03-13T02:46:15.539Z,20.48
2023-03-13T02:48:46.923Z,19.70
2023-03-13T02:51:41.692Z,16.70
2023-03-13T02:54:18.245Z,18.42
2023-03-13T02:56:51.421Z,18.08
2023-03-13T02:59:18.409Z,18.65
2023-03-13T03:01:45.742Z,19.05
2023-03-13T03:04:12.818Z,18.90
2023-03-13T03:06:39.702Z,23.10
2023-03-13T03:09:06.624Z,21.67
2023-03-13T03:11:33.418Z,19.40
2023-03-13T03:14:00.289Z,18.40
2023-03-13T03:16:27.176Z,22.02
2023-03-13T03:18:54.047Z,20.95
2023-03-13T03:21:21.293Z,21.88
2023-03-13T03:23:48.133Z,21.90
2023-03-13T03:26:14.992Z,18.40
2023-03-13T03:28:42.015Z,23.35
2023-03-13T03:31:12.630Z,20.92
2023-03-13T03:33:40.637Z,22.30
2023-03-13T03:36:13.729Z,20.33
2023-03-13T03:38:41.761Z,22.88
2023-03-13T03:41:10.274Z,22.85
2023-03-13T03:43:37.568Z,25.58
2023-03-13T03:46:04.766Z,23.23
2023-03-13T03:48:32.288Z,23.83
2023-03-13T03:50:59.359Z,23.30
2023-03-13T03:53:26.462Z,24.98
2023-03-13T03:55:53.305Z,24.20
2023-03-13T03:58:20.218Z,22.33
2023-03-13T04:00:48.321Z,23.02
2023-03-13T04:03:16.148Z,24.90
2023-03-13T04:05:43.851Z,26.13
2023-03-13T04:08:10.971Z,23.77
2023-03-13T04:10:37.840Z,26.52
2023-03-13T04:13:04.739Z,24.20
2023-03-13T04:15:31.666Z,25.45
2023-03-13T04:17:58.487Z,25.63
2023-03-13T04:20:25.587Z,23.65
2023-03-13T04:22:53.701Z,26.30
2023-03-13T04:25:20.797Z,25.00
2023-03-13T04:27:47.643Z,27.98
2023-03-13T04:30:16.290Z,26.30
2023-03-13T04:32:44.652Z,25.40
2023-03-13T04:35:11.546Z,28.10
2023-03-13T04:37:38.402Z,24.40
2023-03-13T04:40:07.029Z,26.27
2023-03-13T04:42:33.810Z,26.13
2023-03-13T04:45:00.624Z,26.98
2023-03-13T04:47:27.465Z,24.05
2023-03-13T04:49:54.310Z,28.40
2023-03-13T04:52:21.244Z,31.55
2023-03-13T04:54:48.281Z,28.05
2023-03-13T04:57:19.741Z,28.17
2023-03-13T04:59:46.640Z,27.85
2023-03-13T05:02:13.918Z,27.63
2023-03-13T05:04:43.751Z,28.90
2023-03-13T05:07:10.547Z,30.15
2023-03-13T05:09:37.360Z,28.83
2023-03-13T05:12:04.557Z,27.08
2023-03-13T05:14:31.398Z,31.75
2023-03-13T05:16:58.268Z,27.13
2023-03-13T05:19:25.195Z,29.20
2023-03-13T05:21:52.072Z,27.67
2023-03-13T05:24:18.933Z,31.70
2023-03-13T05:26:45.763Z,36.10
2023-03-13T05:29:12.626Z,36.40
2023-03-13T05:31:39.487Z,33.15
2023-03-13T05:34:06.322Z,32.53
2023-03-13T05:36:33.156Z,39.08
2023-03-13T05:39:00.022Z,84.05
2023-03-13T05:41:26.951Z,53.35
2023-03-13T05:43:53.798Z,66.10
2023-03-13T05:46:20.743Z,38.95
2023-03-13T05:48:47.648Z,57.88
2023-03-13T05:51:14.634Z,77.88
2023-03-13T05:53:41.571Z,55.58
2023-03-13T05:56:11.491Z,50.95
2023-03-13T05:58:38.375Z,58.13
2023-03-13T06:01:14.086Z,57.92
2023-03-13T06:03:41.155Z,63.20
2023-03-13T06:06:08.121Z,54.33
2023-03-13T06:08:37.739Z,51.53
2023-03-13T06:11:07.514Z,62.85
2023-03-13T06:13:34.614Z,80.75
2023-03-13T06:16:01.885Z,67.22
2023-03-13T06:18:28.761Z,74.03
2023-03-13T06:21:01.184Z,58.17
2023-03-13T06:23:28.540Z,50.75
2023-03-13T06:25:56.623Z,49.45
2023-03-13T06:28:23.574Z,58.70
2023-03-13T06:30:50.505Z,44.40
2023-03-13T06:33:17.518Z,58.10
2023-03-13T06:35:55.808Z,57.97
2023-03-13T06:38:25.129Z,54.33
2023-03-13T06:40:52.479Z,57.67
2023-03-13T06:43:19.958Z,64.00
2023-03-13T06:45:47.362Z,58.08
2023-03-13T06:48:14.629Z,53.20
2023-03-13T06:50:42.162Z,47.97
2023-03-13T06:53:19.487Z,54.47
2023-03-13T06:55:47.191Z,53.85
2023-03-13T06:58:28.807Z,47.15
2023-03-13T07:00:59.050Z,46.92
2023-03-13T07:03:26.129Z,45.38
2023-03-13T07:05:58.125Z,49.50
2023-03-13T07:08:25.719Z,44.13
2023-03-13T07:10:53.753Z,46.20
2023-03-13T07:13:21.806Z,45.30
2023-03-13T07:15:49.471Z,53.33
2023-03-13T07:18:16.529Z,48.60
2023-03-13T07:20:44.005Z,51.72
2023-03-13T07:23:10.893Z,48.47
2023-03-13T07:25:37.733Z,63.92
2023-03-13T07:28:04.770Z,63.42
2023-03-13T07:30:31.702Z,74.10
2023-03-13T07:32:59.120Z,78.57
2023-03-13T07:35:26.085Z,79.57
2023-03-13T07:37:52.999Z,102.55
2023-03-13T07:40:20.108Z,82.93
2023-03-13T07:42:46.980Z,76.00
2023-03-13T07:45:13.835Z,73.85
2023-03-13T07:47:40.674Z,73.18
2023-03-13T07:50:08.545Z,78.55
2023-03-13T07:52:35.556Z,69.82
2023-03-13T07:55:02.447Z,66.30
2023-03-13T07:57:29.344Z,71.97
2023-03-13T07:59:56.171Z,80.47
2023-03-13T08:02:23.171Z,55.95
2023-03-13T08:04:53.218Z,67.40
2023-03-13T08:07:20.141Z,59.80
2023-03-13T08:09:47.247Z,62.72
2023-03-13T08:12:14.125Z,65.97
2023-03-13T08:14:40.928Z,61.63
2023-03-13T08:17:07.844Z,63.30
2023-03-13T08:19:34.748Z,57.13
2023-03-13T08:22:02.622Z,56.60
2023-03-13T08:24:29.566Z,55.55
2023-03-13T08:26:56.377Z,57.80
2023-03-13T08:29:23.214Z,59.72
2023-03-13T08:31:54.343Z,59.97
2023-03-13T08:34:21.310Z,67.55
2023-03-13T08:36:48.313Z,69.28
2023-03-13T08:39:18.586Z,71.85
2023-03-13T08:41:48.995Z,73.47
2023-03-13T08:44:20.033Z,83.72
2023-03-13T08:46:49.134Z,73.18
2023-03-13T08:49:17.575Z,116.97
2023-03-13T08:51:44.583Z,70.60
2023-03-13T08:54:11.492Z,66.82
2023-03-13T08:56:38.415Z,68.05
2023-03-13T08:59:06.625Z,69.45
2023-03-13T09:01:35.882Z,75.63
2023-03-13T09:04:04.975Z,63.75
2023-03-13T09:06:38.359Z,61.38
2023-03-13T09:09:08.077Z,62.10
2023-03-13T09:11:37.285Z,81.15
2023-03-13T09:14:04.166Z,77.72
2023-03-13T09:16:32.906Z,60.63
2023-03-13T09:19:01.092Z,61.13
2023-03-13T09:21:34.193Z,60.45
2023-03-13T09:24:02.029Z,70.45
2023-03-13T09:26:29.206Z,75.40
2023-03-13T09:28:56.523Z,57.70
2023-03-13T09:31:27.790Z,57.22
2023-03-13T09:33:55.060Z,61.35
2023-03-13T09:36:23.956Z,59.65
2023-03-13T09:38:57.596Z,55.95
2023-03-13T09:41:40.326Z,54.88
2023-03-13T09:44:23.222Z,55.97
2023-03-13T09:47:08.494Z,52.88
2023-03-13T09:49:42.823Z,56.08
2023-03-13T09:52:40.492Z,55.55
2023-03-13T09:55:22.384Z,55.50
2023-03-13T09:57:55.811Z,53.60
2023-03-13T10:00:31.838Z,61.80
2023-03-13T10:03:31.456Z,52.85
2023-03-13T10:06:24.698Z,53.40
2023-03-13T10:08:52.859Z,53.63
2023-03-13T10:11:44.572Z,53.03
2023-03-13T10:14:29.761Z,46.03
2023-03-13T10:17:07.268Z,51.15
2023-03-13T10:19:43.396Z,46.83
2023-03-13T10:22:22.789Z,49.47
2023-03-13T10:25:09.753Z,48.97
2023-03-13T10:27:51.138Z,81.65
2023-03-13T10:30:31.356Z,81.65
2023-03-13T10:33:12.125Z,50.88
2023-03-13T10:35:42.598Z,48.25
2023-03-13T10:38:20.463Z,41.53
2023-03-13T10:41:05.557Z,39.25
2023-03-13T10:43:32.465Z,44.10
2023-03-13T10:45:59.488Z,44.13
2023-03-13T10:48:35.827Z,41.50
2023-03-13T10:51:02.692Z,40.17
2023-03-13T10:53:29.465Z,37.65
2023-03-13T10:56:08.989Z,42.00
2023-03-13T10:58:51.749Z,39.05
2023-03-13T11:01:42.191Z,41.58
2023-03-13T11:04:39.004Z,37.72
2023-03-13T11:07:21.176Z,40.80
2023-03-13T11:10:19.253Z,41.03
2023-03-13T11:12:53.176Z,40.95
2023-03-13T11:15:41.443Z,40.15
2023-03-13T11:18:29.412Z,42.25
2023-03-13T11:21:08.717Z,33.28
2023-03-13T11:23:53.890Z,39.95
2023-03-13T11:27:03.859Z,37.03
2023-03-13T11:30:07.602Z,37.63
2023-03-13T11:32:52.336Z,38.72
2023-03-13T11:35:37.202Z,35.25
2023-03-13T11:38:20.160Z,41.10
2023-03-13T11:41:37.718Z,38.55
2023-03-13T11:44:22.773Z,35.78
2023-03-13T11:47:29.263Z,38.00
2023-03-13T11:50:07.622Z,41.45
2023-03-13T11:53:24.795Z,40.03
2023-03-13T11:56:13.913Z,40.58
2023-03-13T11:58:49.223Z,45.40
2023-03-13T12:01:27.262Z,39.83
2023-03-13T12:04:11.646Z,35.17
2023-03-13T12:06:52.165Z,52.03
2023-03-13T12:09:51.671Z,48.30
2023-03-13T12:12:59.926Z,41.95
2023-03-13T12:15:45.284Z,40.10
2023-03-13T12:18:34.359Z,43.45
2023-03-13T12:21:34.861Z,40.40
2023-03-13T12:24:12.721Z,47.40
2023-03-13T12:26:55.359Z,51.45
2023-03-13T12:29:41.982Z,52.20
2023-03-13T12:32:22.381Z,47.88
2023-03-13T12:35:12.659Z,62.05
2023-03-13T12:37:50.186Z,55.67
2023-03-13T12:40:34.112Z,46.40
2023-03-13T12:43:19.493Z,46.45
2023-03-13T12:45:57.063Z,44.13
2023-03-13T12:49:12.276Z,48.83
2023-03-13T12:52:02.498Z,45.83
2023-03-13T12:55:08.192Z,51.65
2023-03-13T12:58:10.664Z,50.40
2023-03-13T13:00:42.543Z,50.15
2023-03-13T13:03:45.069Z,45.25
2023-03-13T13:06:15.668Z,52.28
2023-03-13T13:08:54.664Z,55.78
2023-03-13T13:11:39.627Z,66.15
2023-03-13T13:14:18.256Z,57.83
2023-03-13T13:17:16.514Z,45.20
2023-03-13T13:19:46.055Z,71.25
2023-03-13T13:22:37.849Z,43.10
2023-03-13T13:25:10.616Z,62.35
2023-03-13T13:27:37.379Z,59.10
2023-03-13T13:30:30.399Z,69.82
2023-03-13T13:33:20.438Z,54.67
2023-03-13T13:36:10.619Z,34.42
2023-03-13T13:38:42.686Z,40.63
2023-03-13T13:41:09.567Z,34.78
2023-03-13T13:43:45.868Z,27.42
2023-03-13T13:46:33.219Z,36.55
2023-03-13T13:49:06.682Z,38.63
2023-03-13T13:51:42.155Z,35.78
2023-03-13T13:54:55.024Z,24.63
2023-03-13T13:57:29.926Z,31.17
2023-03-13T14:00:05.692Z,27.48
2023-03-13T14:02:52.187Z,28.05
2023-03-13T14:05:29.257Z,35.00
2023-03-13T14:08:17.464Z,43.00
2023-03-13T14:11:30.454Z,36.05
2023-03-13T14:14:21.672Z,22.95
2023-03-13T14:16:54.207Z,23.58
2023-03-13T14:19:42.113Z,23.45
2023-03-13T14:22:14.247Z,29.33
2023-03-13T14:24:41.279Z,32.20
2023-03-13T14:27:19.878Z,21.70
2023-03-13T14:30:11.066Z,25.02
2023-03-13T14:32:39.429Z,34.85
2023-03-13T14:35:09.378Z,28.27
2023-03-13T14:38:02.360Z,43.88
2023-03-13T14:40:33.016Z,39.08
2023-03-13T14:43:02.850Z,24.10
2023-03-13T14:45:35.599Z,26.15
2023-03-13T14:48:22.750Z,20.65
2023-03-13T14:51:12.548Z,16.38
2023-03-13T14:53:59.213Z,15.30
2023-03-13T14:56:38.234Z,16.83
2023-03-13T14:59:19.473Z,20.13
2023-03-13T15:01:46.886Z,14.50
2023-03-13T15:04:13.940Z,14.80
2023-03-13T15:06:41.031Z,17.73
2023-03-13T15:09:18.457Z,14.38
2023-03-13T15:11:59.268Z,17.60
2023-03-13T15:14:45.876Z,15.73
2023-03-13T15:17:23.695Z,15.63
2023-03-13T15:19:56.989Z,12.82
2023-03-13T15:22:33.305Z,12.25
2023-03-13T15:25:08.233Z,13.38
2023-03-13T15:27:36.052Z,14.32
2023-03-13T15:30:03.195Z,11.68
2023-03-13T15:32:35.898Z,13.02
2023-03-13T15:35:21.409Z,12.50
2023-03-13T15:37:48.290Z,14.00
2023-03-13T15:40:17.099Z,12.60
2023-03-13T15:42:44.138Z,12.65
2023-03-13T15:45:11.765Z,12.00
2023-03-13T15:47:38.620Z,10.50
2023-03-13T15:50:12.760Z,12.90
2023-03-13T15:52:40.069Z,10.63
2023-03-13T15:55:08.430Z,10.45
2023-03-13T15:57:40.987Z,12.35
2023-03-13T16:00:29.901Z,14.10
2023-03-13T16:02:56.798Z,23.73
2023-03-13T16:05:23.626Z,15.38
2023-03-13T16:07:50.451Z,13.68
2023-03-13T16:10:25.823Z,12.00
2023-03-13T16:12:55.948Z,10.95
2023-03-13T16:15:23.130Z,15.25
2023-03-13T16:17:50.369Z,12.73
2023-03-13T16:20:21.622Z,14.32
2023-03-13T16:22:48.589Z,13.65
2023-03-13T16:25:15.853Z,14.88
2023-03-13T16:27:43.464Z,17.02
2023-03-13T16:30:32.891Z,16.02
2023-03-13T16:33:00.474Z,19.23
2023-03-13T16:35:28.808Z,17.63
2023-03-13T16:37:57.946Z,22.25
2023-03-13T16:40:32.108Z,17.35
2023-03-13T16:42:59.284Z,24.02
2023-03-13T16:45:26.951Z,23.98
2023-03-13T16:47:54.081Z,20.60
2023-03-13T16:50:29.534Z,23.63
2023-03-13T16:52:56.507Z,46.47
2023-03-13T16:55:28.380Z,33.65
2023-03-13T16:58:01.851Z,18.48
2023-03-13T17:00:32.035Z,27.92
2023-03-13T17:02:59.552Z,25.67
2023-03-13T17:05:27.572Z,20.10
2023-03-13T17:07:54.930Z,22.05
2023-03-13T17:10:28.858Z,33.88
2023-03-13T17:12:56.370Z,44.00
2023-03-13T17:15:25.368Z,40.28
2023-03-13T17:17:54.062Z,53.92
2023-03-13T17:20:27.398Z,38.40
2023-03-13T17:22:57.993Z,44.78
2023-03-13T17:25:25.347Z,51.00
2023-03-13T17:27:52.335Z,42.55
2023-03-13T17:30:30.066Z,44.83
2023-03-13T17:32:58.997Z,56.97
2023-03-13T17:35:25.986Z,55.10
2023-03-13T17:37:53.162Z,79.53
2023-03-13T17:40:28.524Z,54.90
2023-03-13T17:42:56.353Z,69.40
2023-03-13T17:45:24.115Z,43.03
2023-03-13T17:47:54.542Z,43.97
2023-03-13T17:50:27.342Z,37.95
2023-03-13T17:52:55.029Z,60.72
2023-03-13T17:55:22.650Z,40.22
2023-03-13T17:57:49.726Z,40.17
2023-03-13T18:00:25.572Z,59.97
2023-03-13T18:02:52.475Z,33.80
2023-03-13T18:05:19.448Z,44.13
2023-03-13T18:07:48.468Z,62.90
2023-03-13T18:10:28.119Z,57.72
2023-03-13T18:12:55.282Z,37.00
2023-03-13T18:15:25.494Z,35.70
2023-03-13T18:17:52.991Z,37.30
2023-03-13T18:20:25.416Z,37.40
2023-03-13T18:22:52.578Z,36.50
2023-03-13T18:25:19.688Z,32.28
2023-03-13T18:27:46.506Z,31.42
2023-03-13T18:30:23.412Z,29.80
2023-03-13T18:32:50.611Z,34.58
2023-03-13T18:35:18.268Z,27.15
2023-03-13T18:37:47.587Z,29.40
2023-03-13T18:40:20.851Z,33.28
2023-03-13T18:42:47.773Z,33.65
2023-03-13T18:45:29.260Z,29.60
2023-03-13T18:47:56.623Z,32.53
2023-03-13T18:50:31.617Z,30.50
2023-03-13T18:53:00.305Z,28.75
2023-03-13T18:55:30.882Z,27.48
2023-03-13T18:57:57.968Z,23.08
2023-03-13T19:00:30.886Z,37.60
2023-03-13T19:05:24.950Z,28.75
2023-03-13T19:07:51.899Z,25.33
2023-03-13T19:10:24.764Z,27.60
2023-03-13T19:12:53.806Z,30.15
2023-03-13T19:15:24.332Z,26.60
2023-03-13T19:17:52.841Z,24.58
2023-03-13T19:20:27.700Z,26.40
2023-03-13T19:22:56.253Z,25.50
2023-03-13T19:25:23.626Z,26.38
2023-03-13T19:27:52.497Z,25.20
2023-03-13T19:30:23.240Z,28.23
2023-03-13T19:32:50.695Z,26.55
2023-03-13T19:35:21.039Z,26.75
2023-03-13T19:37:48.446Z,27.85
2023-03-13T19:40:28.661Z,27.85
2023-03-13T19:42:55.564Z,25.05
2023-03-13T19:45:22.460Z,25.58
2023-03-13T19:47:50.331Z,28.48
2023-03-13T19:50:29.872Z,27.65
2023-03-13T19:52:57.007Z,29.60
2023-03-13T19:55:24.118Z,28.95
2023-03-13T19:57:54.078Z,30.02
2023-03-13T20:00:24.923Z,28.40
2023-03-13T20:02:57.657Z,24.75
2023-03-13T20:05:28.805Z,26.33
2023-03-13T20:07:55.809Z,30.50
2023-03-13T20:10:23.095Z,26.83
2023-03-13T20:12:49.956Z,28.38
2023-03-13T20:15:17.447Z,28.42
2023-03-13T20:17:44.593Z,28.23
2023-03-13T20:20:15.935Z,26.88
2023-03-13T20:22:43.685Z,31.38
2023-03-13T20:25:11.046Z,26.10
2023-03-13T20:27:39.123Z,25.75
2023-03-13T20:30:07.204Z,23.98
2023-03-13T20:32:34.249Z,21.90
2023-03-13T20:35:02.350Z,23.30
2023-03-13T20:37:29.282Z,24.92
2023-03-13T20:39:56.266Z,22.58
2023-03-13T20:42:23.310Z,24.50
2023-03-13T20:44:50.183Z,24.70
2023-03-13T20:47:17.452Z,21.85
2023-03-13T20:49:44.309Z,21.45
2023-03-13T20:52:11.186Z,28.40
2023-03-13T20:54:38.899Z,21.48
2023-03-13T20:57:06.193Z,22.90
2023-03-13T20:59:33.100Z,20.30
2023-03-13T21:02:00.114Z,20.90
2023-03-13T21:04:27.062Z,24.00
2023-03-13T21:06:54.233Z,20.48
2023-03-13T21:09:21.488Z,20.98
2023-03-13T21:11:48.543Z,35.08
2023-03-13T21:14:15.484Z,41.45
2023-03-13T21:16:42.372Z,43.20
2023-03-13T21:19:09.276Z,57.75
2023-03-13T21:21:36.170Z,56.03
2023-03-13T21:24:03.030Z,94.90
2023-03-13T21:26:30.371Z,66.00
2023-03-13T21:28:57.456Z,83.43
2023-03-13T21:31:25.069Z,95.30
2023-03-13T21:33:52.262Z,82.50
2023-03-13T21:36:21.202Z,49.13
2023-03-13T21:38:50.300Z,37.97
2023-03-13T21:41:20.869Z,40.72
2023-03-13T21:43:48.088Z,59.28
2023-03-13T21:46:17.946Z,97.88
2023-03-13T21:51:18.063Z,46.90
2023-03-13T21:53:46.600Z,46.50
2023-03-13T21:56:15.536Z,71.70
2023-03-13T21:58:45.599Z,50.35
2023-03-13T22:01:14.794Z,61.25
2023-03-13T22:03:42.242Z,81.55
2023-03-13T22:06:20.869Z,47.05
2023-03-13T22:08:51.130Z,45.03
2023-03-13T22:11:18.872Z,38.05
2023-03-13T22:13:45.828Z,51.38
2023-03-13T22:16:12.776Z,34.05
2023-03-13T22:18:41.793Z,32.90
2023-03-13T22:21:08.910Z,28.42
2023-03-13T22:23:35.777Z,24.15
2023-03-13T22:26:03.377Z,23.90
2023-03-13T22:28:30.341Z,33.05
2023-03-13T22:31:01.672Z,24.55
2023-03-13T22:33:28.538Z,24.95
2023-03-13T22:35:55.550Z,25.45
2023-03-13T22:38:22.683Z,25.80
2023-03-13T22:41:05.136Z,23.83
2023-03-13T22:43:32.313Z,27.07
2023-03-13T22:45:59.667Z,20.10
2023-03-13T22:48:28.147Z,18.77
2023-03-13T22:51:08.956Z,23.92
2023-03-13T22:53:39.185Z,28.08
2023-03-13T22:56:09.884Z,23.35
2023-03-13T22:58:37.423Z,18.90
2023-03-13T23:01:16.757Z,20.52
2023-03-13T23:03:45.133Z,19.30
2023-03-13T23:06:22.406Z,18.25
2023-03-13T23:08:52.466Z,17.17
2023-03-13T23:11:20.603Z,19.02
2023-03-13T23:13:47.559Z,29.70
2023-03-13T23:16:14.932Z,17.85
2023-03-13T23:18:42.635Z,18.00
2023-03-13T23:21:14.307Z,19.63
2023-03-13T23:23:42.109Z,19.52
2023-03-13T23:26:14.317Z,19.15
2023-03-13T23:28:41.637Z,18.93
2023-03-13T23:31:21.240Z,18.80
2023-03-13T23:33:49.315Z,17.55
2023-03-13T23:36:19.613Z,14.30
2023-03-13T23:38:52.290Z,16.52
2023-03-13T23:41:20.796Z,18.10
2023-03-13T23:43:47.916Z,18.02
2023-03-13T23:46:20.858Z,18.90
2023-03-13T23:48:47.861Z,13.82
2023-03-13T23:51:14.749Z,17.58
2023-03-13T23:53:43.246Z,20.45
2023-03-13T23:56:11.408Z,24.20
2023-03-13T23:58:38.677Z,18.75
